Time;durP1;ratioP1;P1;durP2;ratioP2;P2;SDS_P1;SDS_P2;PMS_P1;PMS_P2;Temp;Humidity;BMP_temperature;BMP_pressure;BME280_temperature;BME280_humidity;BME280_pressure;Samples;Min_cycle;Max_cycle;Signal;HPM_P1;HPM_P2
2022/08/18 00:02:05;;;;;;;17.83;6.30;;;19.00;99.90;;;;;;5098838;28;20087;-48
2022/08/18 00:04:33;;;;;;;17.38;6.13;;;19.00;99.90;;;;;;5100489;28;20070;-51
2022/08/18 00:06:59;;;;;;;16.75;6.05;;;19.00;99.90;;;;;;5099096;28;20036;-51
2022/08/18 00:09:24;;;;;;;16.85;6.68;;;18.90;99.90;;;;;;5099643;28;20047;-49
2022/08/18 00:11:50;;;;;;;14.05;6.55;;;18.90;99.90;;;;;;5100613;28;20423;-50
2022/08/18 00:14:18;;;;;;;15.60;5.63;;;18.90;99.90;;;;;;5099339;28;20051;-51
2022/08/18 00:16:44;;;;;;;14.52;6.13;;;19.00;99.90;;;;;;5098826;28;20036;-50
2022/08/18 00:19:10;;;;;;;17.13;5.53;;;19.00;99.90;;;;;;5099203;28;20113;-51
2022/08/18 00:21:36;;;;;;;12.20;5.45;;;19.00;99.90;;;;;;5100311;28;20047;-49
2022/08/18 00:24:02;;;;;;;14.48;5.75;;;19.00;99.90;;;;;;5100034;28;20390;-49
2022/08/18 00:26:28;;;;;;;14.55;5.90;;;19.00;99.90;;;;;;5099413;28;20105;-48
2022/08/18 00:28:53;;;;;;;12.90;5.93;;;19.00;99.90;;;;;;5100157;28;20149;-50
2022/08/18 00:31:19;;;;;;;16.35;6.03;;;19.00;99.90;;;;;;5098774;28;20040;-50
2022/08/18 00:33:44;;;;;;;15.93;5.97;;;18.90;99.90;;;;;;5099921;28;20063;-49
2022/08/18 00:36:11;;;;;;;14.27;5.75;;;19.00;99.90;;;;;;5098558;28;20442;-49
2022/08/18 00:38:37;;;;;;;15.38;6.32;;;18.90;99.90;;;;;;5099468;28;20051;-50
2022/08/18 00:41:05;;;;;;;18.42;6.35;;;18.90;99.90;;;;;;5099199;28;20396;-49
2022/08/18 00:43:40;;;;;;;13.82;5.95;;;18.80;99.90;;;;;;5099013;28;20122;-50
2022/08/18 00:46:10;;;;;;;13.93;5.72;;;18.80;99.90;;;;;;5099775;28;20055;-50
2022/08/18 00:48:37;;;;;;;13.13;4.97;;;18.70;99.90;;;;;;5098482;28;20040;-52
2022/08/18 00:51:43;;;;;;;14.07;6.05;;;18.70;99.90;;;;;;5099399;28;20529;-50
2022/08/18 00:54:21;;;;;;;14.35;5.28;;;18.80;99.90;;;;;;5098678;28;20090;-50
2022/08/18 00:56:54;;;;;;;14.82;6.00;;;18.80;99.90;;;;;;5098593;28;20090;-48
2022/08/18 00:59:34;;;;;;;14.95;6.22;;;18.80;99.90;;;;;;5099511;28;20048;-51
2022/08/18 01:02:02;;;;;;;11.80;5.82;;;18.70;99.90;;;;;;5098357;28;20050;-49
2022/08/18 01:04:52;;;;;;;15.52;7.13;;;18.60;99.90;;;;;;5098814;28;20044;-49
2022/08/18 01:07:34;;;;;;;14.88;5.55;;;18.60;99.90;;;;;;5099299;28;20043;-50
2022/08/18 01:10:02;;;;;;;16.30;6.45;;;18.70;99.90;;;;;;5096606;28;20055;-50
2022/08/18 01:12:28;;;;;;;15.25;6.40;;;18.70;99.90;;;;;;5098785;28;20044;-49
2022/08/18 01:14:55;;;;;;;12.20;6.25;;;18.70;99.90;;;;;;5096587;28;20596;-51
2022/08/18 01:22:56;;;;;;;14.75;6.65;;;18.60;99.90;;;;;;5098157;28;20055;-49
2022/08/18 01:28:06;;;;;;;14.65;6.43;;;18.60;99.90;;;;;;5098918;28;20080;-48
2022/08/18 01:30:45;;;;;;;14.82;6.13;;;18.70;99.90;;;;;;5098786;28;20076;-48
2022/08/18 01:33:11;;;;;;;15.07;7.00;;;18.70;99.90;;;;;;5099348;28;20054;-51
2022/08/18 01:35:38;;;;;;;13.15;7.90;;;18.70;99.90;;;;;;5098227;28;20499;-51
2022/08/18 01:38:04;;;;;;;17.10;7.03;;;18.70;99.90;;;;;;5099153;28;20058;-51
2022/08/18 01:40:31;;;;;;;16.25;7.40;;;18.80;99.90;;;;;;5096512;28;20040;-49
2022/08/18 01:42:57;;;;;;;18.50;8.10;;;18.80;99.90;;;;;;5098977;28;20040;-49
2022/08/18 01:45:23;;;;;;;17.92;7.55;;;18.60;99.90;;;;;;5098589;28;20044;-50
2022/08/18 01:47:49;;;;;;;17.20;7.32;;;18.60;99.90;;;;;;5098485;28;20074;-51
2022/08/18 01:50:16;;;;;;;17.40;8.05;;;18.60;99.90;;;;;;5098728;28;20067;-49
2022/08/18 01:52:42;;;;;;;20.33;7.45;;;18.70;99.90;;;;;;5097842;28;20036;-50
2022/08/18 01:55:08;;;;;;;18.60;7.40;;;18.60;99.90;;;;;;5098973;28;20411;-49
2022/08/18 01:57:43;;;;;;;15.57;8.05;;;18.70;99.90;;;;;;5097860;28;20385;-48
2022/08/18 02:00:11;;;;;;;20.42;8.32;;;18.70;99.90;;;;;;5098782;28;20044;-50
2022/08/18 02:02:37;;;;;;;15.80;8.05;;;18.80;99.90;;;;;;5098407;28;20050;-49
2022/08/18 02:05:09;;;;;;;19.30;8.70;;;18.70;99.90;;;;;;5098119;28;20052;-52
2022/08/18 02:07:36;;;;;;;17.40;7.72;;;18.70;99.90;;;;;;5099035;28;20048;-49
2022/08/18 02:10:06;;;;;;;18.55;9.30;;;18.70;99.90;;;;;;5097395;28;20096;-51
2022/08/18 02:12:32;;;;;;;19.63;9.05;;;18.60;99.90;;;;;;5099059;28;20052;-50
2022/08/18 02:14:57;;;;;;;15.00;8.40;;;18.70;99.90;;;;;;5097855;28;20119;-48
2022/08/18 02:17:23;;;;;;;16.88;8.38;;;18.70;99.90;;;;;;5096899;28;20072;-48
2022/08/18 02:19:49;;;;;;;23.70;9.30;;;18.60;99.90;;;;;;5098459;28;20044;-48
2022/08/18 02:22:18;;;;;;;18.77;8.77;;;18.60;99.90;;;;;;5098017;28;20103;-52
2022/08/18 02:24:44;;;;;;;20.50;9.02;;;18.70;99.90;;;;;;5099502;28;20036;-48
2022/08/18 02:27:12;;;;;;;20.35;8.98;;;18.60;99.90;;;;;;5101443;28;20071;-49
2022/08/18 02:29:38;;;;;;;17.90;9.05;;;18.60;99.90;;;;;;5102312;28;20518;-48
2022/08/18 02:32:04;;;;;;;20.42;8.50;;;18.70;99.90;;;;;;5101361;28;20036;-47
2022/08/18 02:34:30;;;;;;;17.17;8.45;;;18.60;99.90;;;;;;5102111;28;20043;-48
2022/08/18 02:37:00;;;;;;;21.90;10.15;;;18.60;99.90;;;;;;5102126;28;20036;-48
2022/08/18 02:39:27;;;;;;;19.95;8.38;;;18.70;99.90;;;;;;5100983;28;20048;-49
2022/08/18 02:41:53;;;;;;;17.60;9.32;;;18.60;99.90;;;;;;5102259;28;20036;-51
2022/08/18 02:44:18;;;;;;;16.33;7.78;;;18.70;99.90;;;;;;5100929;28;20032;-48
2022/08/18 02:46:44;;;;;;;19.30;8.68;;;18.70;99.90;;;;;;5101932;28;20113;-51
2022/08/18 02:49:11;;;;;;;16.30;8.15;;;18.70;99.90;;;;;;5100986;28;20052;-48
2022/08/18 02:51:36;;;;;;;19.05;8.73;;;18.70;99.90;;;;;;5101768;28;20074;-48
2022/08/18 02:54:08;;;;;;;21.80;8.77;;;18.70;99.90;;;;;;5101880;28;20044;-51
2022/08/18 02:56:34;;;;;;;14.30;8.18;;;18.70;99.90;;;;;;5101222;28;20048;-49
2022/08/18 02:59:04;;;;;;;15.77;8.20;;;18.70;99.90;;;;;;5101741;28;20078;-51
2022/08/18 03:01:38;;;;;;;14.48;7.72;;;18.70;99.90;;;;;;5100598;28;20036;-49
2022/08/18 03:04:06;;;;;;;13.93;8.40;;;18.80;99.90;;;;;;5101657;28;20032;-51
2022/08/18 03:06:34;;;;;;;15.40;8.85;;;18.80;99.90;;;;;;5099289;28;20078;-48
2022/08/18 03:09:00;;;;;;;15.57;8.30;;;18.80;99.90;;;;;;5100829;28;20043;-50
2022/08/18 03:11:28;;;;;;;13.23;8.02;;;18.80;99.90;;;;;;5101347;28;20541;-51
2022/08/18 03:13:55;;;;;;;11.73;8.77;;;18.90;99.90;;;;;;5100401;28;20044;-51
2022/08/18 03:16:23;;;;;;;15.68;8.52;;;18.80;99.90;;;;;;5101255;28;20055;-50
2022/08/18 03:18:50;;;;;;;14.55;8.27;;;18.80;99.90;;;;;;5100321;28;20031;-51
2022/08/18 03:21:20;;;;;;;13.45;7.90;;;18.90;99.90;;;;;;5101288;28;20040;-47
2022/08/18 03:23:46;;;;;;;12.50;8.02;;;18.80;99.90;;;;;;5100651;28;20441;-51
2022/08/18 03:26:15;;;;;;;14.70;7.75;;;18.70;99.90;;;;;;5100461;28;20047;-51
2022/08/18 03:28:43;;;;;;;17.02;7.75;;;18.70;99.90;;;;;;5101142;28;20032;-49
2022/08/18 03:31:11;;;;;;;15.27;8.38;;;18.80;99.90;;;;;;5099768;28;20051;-50
2022/08/18 03:33:37;;;;;;;13.63;8.77;;;18.70;99.90;;;;;;5101089;28;20036;-50
2022/08/18 03:36:11;;;;;;;13.45;8.07;;;18.60;99.90;;;;;;5099394;28;20052;-47
2022/08/18 03:38:37;;;;;;;15.35;8.73;;;18.60;99.90;;;;;;5100518;28;20415;-48
2022/08/18 03:41:04;;;;;;;13.38;9.27;;;18.60;99.90;;;;;;5100421;28;20055;-49
2022/08/18 03:43:30;;;;;;;13.02;8.55;;;18.50;99.90;;;;;;5100269;28;20044;-52
2022/08/18 03:46:01;;;;;;;12.10;7.95;;;18.50;99.90;;;;;;5099283;28;20158;-52
2022/08/18 03:48:27;;;;;;;17.45;9.57;;;18.50;99.90;;;;;;5099746;28;20088;-50
2022/08/18 03:50:53;;;;;;;16.88;9.00;;;18.50;99.90;;;;;;5100487;28;20155;-48
2022/08/18 03:53:18;;;;;;;18.95;8.93;;;18.50;99.90;;;;;;5099271;28;20080;-52
2022/08/18 03:55:44;;;;;;;13.23;8.43;;;18.50;99.90;;;;;;5100678;28;20506;-51
2022/08/18 03:58:13;;;;;;;14.90;9.02;;;18.50;99.90;;;;;;5100054;28;20435;-50
2022/08/18 04:00:39;;;;;;;14.60;8.85;;;18.50;99.90;;;;;;5099980;28;20046;-49
2022/08/18 04:03:06;;;;;;;11.32;8.75;;;18.50;99.90;;;;;;5100387;28;20079;-52
2022/08/18 04:05:34;;;;;;;16.33;9.23;;;18.50;99.90;;;;;;5099490;28;20040;-52
2022/08/18 04:08:01;;;;;;;15.88;9.93;;;18.50;99.90;;;;;;5099492;28;20044;-51
2022/08/18 04:10:27;;;;;;;15.77;9.90;;;18.60;99.90;;;;;;5098428;28;20059;-51
2022/08/18 04:12:52;;;;;;;15.30;9.50;;;18.50;99.90;;;;;;5100049;28;20036;-53
2022/08/18 04:15:18;;;;;;;13.57;9.15;;;18.50;99.90;;;;;;5099713;28;20036;-53
2022/08/18 04:17:45;;;;;;;16.60;10.20;;;18.50;99.90;;;;;;5099568;28;20071;-51
2022/08/18 04:20:11;;;;;;;15.50;9.55;;;18.50;99.90;;;;;;5100202;28;20040;-51
2022/08/18 04:22:37;;;;;;;15.38;9.82;;;18.50;99.90;;;;;;5099438;28;20046;-51
2022/08/18 04:25:03;;;;;;;15.10;10.18;;;18.50;99.90;;;;;;5100398;28;20128;-53
2022/08/18 04:27:29;;;;;;;13.20;9.80;;;18.50;99.90;;;;;;5097738;28;20040;-47
2022/08/18 04:29:58;;;;;;;13.70;10.07;;;18.50;99.90;;;;;;5100106;28;20048;-50
2022/08/18 04:32:24;;;;;;;13.95;10.00;;;18.50;99.90;;;;;;5099746;28;20406;-48
2022/08/18 04:34:50;;;;;;;14.52;9.57;;;18.50;99.90;;;;;;5099490;28;20085;-54
2022/08/18 04:37:16;;;;;;;12.75;9.60;;;18.40;99.90;;;;;;5100139;28;20110;-51
2022/08/18 04:39:42;;;;;;;17.25;9.55;;;18.50;99.90;;;;;;5098793;28;20044;-49
2022/08/18 04:42:08;;;;;;;17.92;9.32;;;18.50;99.90;;;;;;5100062;28;20040;-49
2022/08/18 04:44:36;;;;;;;14.40;9.43;;;18.60;99.90;;;;;;5098792;28;20040;-48
2022/08/18 04:47:03;;;;;;;12.70;8.40;;;18.60;99.90;;;;;;5099677;28;20044;-49
2022/08/18 04:49:30;;;;;;;12.68;8.07;;;18.70;99.90;;;;;;5098452;28;20099;-48
2022/08/18 04:54:42;;;;;;;11.98;8.23;;;18.50;99.90;;;;;;5099734;28;20148;-51
2022/08/18 04:57:13;;;;;;;11.85;8.50;;;18.70;99.90;;;;;;5080537;28;20036;-49
2022/08/18 04:59:41;;;;;;;14.68;8.43;;;18.60;99.90;;;;;;5099684;28;20066;-50
2022/08/18 05:02:07;;;;;;;12.85;8.25;;;18.70;99.90;;;;;;5098505;28;20047;-50
2022/08/18 05:04:36;;;;;;;16.52;8.18;;;18.60;99.90;;;;;;5099209;28;20109;-51
2022/08/18 05:07:10;;;;;;;15.73;8.05;;;18.60;99.90;;;;;;5099444;28;20081;-49
2022/08/18 05:09:37;;;;;;;14.00;8.13;;;18.70;99.90;;;;;;5098093;28;20047;-49
2022/08/18 05:12:06;;;;;;;13.60;7.40;;;18.70;99.90;;;;;;5099469;28;20047;-48
2022/08/18 05:14:32;;;;;;;15.73;8.25;;;18.70;99.90;;;;;;5098097;28;20469;-50
2022/08/18 05:16:59;;;;;;;12.10;7.70;;;18.80;99.90;;;;;;5099299;28;20041;-49
2022/08/18 05:19:25;;;;;;;14.52;7.88;;;18.70;99.90;;;;;;5094684;28;20546;-49
2022/08/18 05:21:52;;;;;;;19.42;7.90;;;18.60;99.90;;;;;;5095275;28;20044;-48
2022/08/18 05:24:19;;;;;;;13.70;7.70;;;18.60;99.90;;;;;;5095669;28;20059;-49
2022/08/18 05:26:45;;;;;;;14.43;7.10;;;18.60;99.90;;;;;;5095137;28;20055;-48
2022/08/18 05:29:11;;;;;;;14.43;8.38;;;18.60;99.90;;;;;;5096066;28;20055;-49
2022/08/18 05:31:37;;;;;;;15.82;8.27;;;18.70;99.90;;;;;;5076051;28;20114;-49
2022/08/18 05:34:03;;;;;;;15.13;7.50;;;18.70;99.90;;;;;;5096007;28;20110;-51
2022/08/18 05:36:49;;;;;;;15.07;7.65;;;18.70;99.90;;;;;;5095527;28;20043;-49
2022/08/18 05:39:22;;;;;;;13.38;7.38;;;18.70;99.90;;;;;;5095020;28;20048;-50
2022/08/18 05:41:52;;;;;;;15.10;7.63;;;18.70;99.90;;;;;;5095768;28;20137;-53
2022/08/18 05:44:24;;;;;;;13.65;7.85;;;18.70;99.90;;;;;;5094840;28;20046;-56
2022/08/18 05:46:59;;;;;;;18.33;7.95;;;18.60;99.90;;;;;;5096067;28;20048;-56
2022/08/18 05:49:26;;;;;;;15.52;7.97;;;18.60;99.90;;;;;;5094035;28;20051;-55
2022/08/18 05:52:01;;;;;;;15.27;7.93;;;18.60;99.90;;;;;;5095405;28;20506;-53
2022/08/18 05:57:31;;;;;;;17.25;8.10;;;18.70;99.90;;;;;;5094700;28;20059;-53
2022/08/18 05:59:58;;;;;;;15.53;7.33;;;18.60;99.90;;;;;;5098207;28;20083;-53
2022/08/18 06:02:55;;;;;;;13.07;6.70;;;18.60;99.90;;;;;;5098858;28;21043;-51
2022/08/18 06:05:56;;;;;;;20.33;6.80;;;18.60;99.90;;;;;;5098603;28;20118;-51
2022/08/18 06:08:26;;;;;;;16.45;7.30;;;18.70;99.90;;;;;;5091739;28;20056;-52
2022/08/18 06:10:53;;;;;;;15.48;7.25;;;18.80;99.90;;;;;;5098805;28;20117;-52
2022/08/18 06:13:19;;;;;;;13.90;6.85;;;18.70;99.90;;;;;;5099199;28;20052;-51
2022/08/18 06:15:48;;;;;;;13.25;7.47;;;18.70;99.90;;;;;;5098385;28;20091;-52
2022/08/18 06:18:26;;;;;;;12.10;5.00;;;18.80;99.90;;;;;;5097997;28;20551;-51
2022/08/18 06:21:01;;;;;;;11.77;4.30;;;18.80;99.90;;;;;;5099224;28;20526;-54
2022/08/18 06:24:05;;;;;;;8.90;4.10;;;18.70;99.90;;;;;;5098216;28;20044;-58
2022/08/18 06:26:33;;;;;;;9.27;3.75;;;18.70;99.90;;;;;;5089645;28;20052;-58
2022/08/18 06:29:36;;;;;;;9.45;4.55;;;18.70;99.90;;;;;;5099092;28;20097;-57
2022/08/18 06:32:21;;;;;;;9.63;3.22;;;18.70;99.90;;;;;;5098138;28;20048;-58
2022/08/18 06:35:07;;;;;;;6.82;2.65;;;18.50;99.90;;;;;;5098521;28;20050;-57
2022/08/18 06:38:37;;;;;;;4.75;2.38;;;18.50;99.90;;;;;;5099166;28;20050;-55
2022/08/18 06:40:26;;;;;;;7.00;2.20;;;18.40;99.90;;;;;;5097378;28;20047;-56
2022/08/18 06:42:52;;;;;;;6.15;2.30;;;18.40;99.90;;;;;;5088041;28;20054;-57
2022/08/18 06:45:21;;;;;;;6.63;2.42;;;18.60;99.90;;;;;;5086202;28;20044;-55
2022/08/18 06:47:58;;;;;;;6.28;2.78;;;18.60;99.90;;;;;;5094828;28;20052;-55
2022/08/18 06:50:31;;;;;;;8.05;3.05;;;18.60;99.90;;;;;;5097498;28;20060;-55
2022/08/18 06:53:00;;;;;;;7.88;3.28;;;18.50;99.90;;;;;;5097402;28;20048;-54
2022/08/18 06:55:39;;;;;;;7.70;3.60;;;18.50;99.90;;;;;;5097991;28;20043;-54
2022/08/18 06:58:28;;;;;;;10.05;3.78;;;18.50;99.90;;;;;;5098052;28;20044;-53
2022/08/18 07:00:59;;;;;;;11.15;4.40;;;18.50;99.90;;;;;;5096164;28;20089;-54
2022/08/18 07:03:33;;;;;;;10.10;3.65;;;18.50;99.90;;;;;;5098658;28;20073;-54
2022/08/18 07:06:23;;;;;;;9.55;3.97;;;18.60;99.90;;;;;;5096832;28;20043;-54
2022/08/18 07:08:52;;;;;;;9.25;3.75;;;18.60;99.90;;;;;;5097969;28;20047;-53
2022/08/18 07:11:32;;;;;;;10.77;3.63;;;18.60;99.90;;;;;;5097255;28;20046;-53
2022/08/18 07:14:21;;;;;;;8.50;3.38;;;18.70;99.90;;;;;;5097412;28;20637;-53
2022/08/18 07:16:47;;;;;;;8.75;3.10;;;18.70;99.90;;;;;;5098037;28;20543;-51
2022/08/18 07:19:19;;;;;;;8.25;2.70;;;18.80;99.90;;;;;;5076705;28;20047;-53
2022/08/18 07:21:59;;;;;;;5.65;2.13;;;18.80;99.90;;;;;;5077710;28;20087;-51
2022/08/18 07:24:29;;;;;;;9.73;3.08;;;18.90;99.90;;;;;;5076715;28;20056;-53
2022/08/18 07:27:03;;;;;;;6.90;2.25;;;18.80;99.90;;;;;;5076545;28;20044;-51
2022/08/18 07:29:31;;;;;;;8.93;2.55;;;19.10;99.90;;;;;;5077673;28;20049;-51
2022/08/18 07:32:03;;;;;;;6.63;2.60;;;19.00;99.90;;;;;;5076629;28;20083;-51
2022/08/18 07:34:40;;;;;;;6.28;2.30;;;19.10;99.90;;;;;;5077207;28;20144;-51
2022/08/18 07:37:13;;;;;;;8.02;2.15;;;19.20;99.90;;;;;;5077724;28;20055;-52
2022/08/18 07:40:03;;;;;;;8.63;2.80;;;19.20;99.90;;;;;;5076361;28;20048;-50
2022/08/18 07:42:40;;;;;;;7.18;2.03;;;19.10;99.90;;;;;;5076921;28;20104;-52
2022/08/18 07:45:16;;;;;;;6.60;2.40;;;19.10;99.90;;;;;;5076742;28;20056;-49
2022/08/18 07:47:54;;;;;;;7.53;2.10;;;19.10;99.90;;;;;;5076534;28;20036;-51
2022/08/18 07:50:22;;;;;;;8.18;2.15;;;19.10;99.90;;;;;;5077095;28;20472;-52
2022/08/18 07:53:04;;;;;;;6.43;2.00;;;19.20;99.90;;;;;;5074612;28;20037;-51
2022/08/18 07:55:34;;;;;;;6.15;2.00;;;19.20;99.90;;;;;;5076780;28;20040;-53
2022/08/18 07:58:08;;;;;;;8.32;2.08;;;19.30;99.90;;;;;;5076333;28;20045;-50
2022/08/18 08:01:06;;;;;;;6.68;2.10;;;19.40;99.90;;;;;;5076448;28;20048;-50
2022/08/18 08:03:44;;;;;;;8.90;2.30;;;19.50;99.90;;;;;;5044885;28;20060;-50
2022/08/18 08:06:44;;;;;;;6.20;2.67;;;19.60;99.90;;;;;;5075657;28;20076;-50
2022/08/18 08:09:35;;;;;;;6.60;2.40;;;19.60;99.90;;;;;;5074008;28;20105;-51
2022/08/18 08:12:29;;;;;;;6.47;2.50;;;19.60;99.90;;;;;;5077024;28;20051;-49
2022/08/18 08:15:12;;;;;;;6.18;2.10;;;19.50;99.90;;;;;;5076043;28;20048;-52
2022/08/18 08:18:01;;;;;;;7.78;2.20;;;19.50;99.90;;;;;;5082424;28;20047;-51
2022/08/18 08:20:30;;;;;;;5.30;1.85;;;19.70;99.90;;;;;;5096962;28;20051;-52
2022/08/18 08:23:18;;;;;;;8.30;2.22;;;19.60;99.90;;;;;;5093801;28;20132;-52
2022/08/18 08:25:49;;;;;;;5.97;1.88;;;19.60;99.90;;;;;;5087606;28;20044;-51
2022/08/18 08:28:15;;;;;;;6.07;1.92;;;19.70;99.90;;;;;;5087183;28;20048;-49
2022/08/18 08:31:05;;;;;;;6.13;2.00;;;19.80;99.90;;;;;;5085870;28;20046;-52
2022/08/18 08:33:36;;;;;;;3.90;1.83;;;19.80;99.90;;;;;;5084710;28;20036;-51
2022/08/18 08:36:12;;;;;;;5.55;2.17;;;19.80;99.90;;;;;;5075547;28;20492;-49
2022/08/18 08:38:42;;;;;;;5.90;2.30;;;19.70;99.90;;;;;;5089802;28;20059;-52
2022/08/18 08:41:25;;;;;;;5.57;2.20;;;19.60;99.90;;;;;;5098212;28;20040;-51
2022/08/18 08:44:04;;;;;;;6.45;2.30;;;19.60;99.90;;;;;;5098701;28;20040;-51
2022/08/18 08:46:41;;;;;;;6.28;3.00;;;19.50;99.90;;;;;;5099399;28;20040;-51
2022/08/18 08:49:41;;;;;;;6.88;2.88;;;19.50;99.90;;;;;;5097539;28;20040;-50
2022/08/18 08:52:46;;;;;;;5.68;2.50;;;19.60;99.90;;;;;;5098644;28;20071;-52
2022/08/18 08:55:26;;;;;;;5.47;2.80;;;19.70;99.90;;;;;;5096725;28;20059;-52
2022/08/18 08:58:07;;;;;;;7.43;2.80;;;19.80;99.90;;;;;;5098452;28;20729;-51
2022/08/18 09:00:34;;;;;;;7.03;2.92;;;19.80;99.90;;;;;;5098686;28;20136;-49
2022/08/18 09:03:17;;;;;;;6.20;3.28;;;19.80;99.90;;;;;;5099502;28;20044;-52
2022/08/18 09:05:45;;;;;;;7.82;2.88;;;19.80;99.90;;;;;;5097569;28;20040;-50
2022/08/18 09:08:14;;;;;;;6.55;2.58;;;19.90;99.90;;;;;;5086295;28;20120;-51
2022/08/18 09:10:58;;;;;;;6.25;2.60;;;20.00;99.90;;;;;;5086726;28;20032;-50
2022/08/18 09:13:56;;;;;;;6.45;2.70;;;20.00;99.90;;;;;;5087832;28;20062;-51
2022/08/18 09:16:34;;;;;;;5.88;2.60;;;20.00;99.90;;;;;;5082755;28;20059;-53
2022/08/18 09:19:12;;;;;;;6.85;2.83;;;20.00;99.90;;;;;;5084950;28;20043;-51
2022/08/18 09:21:52;;;;;;;7.32;3.05;;;20.00;99.90;;;;;;5087296;28;20044;-51
2022/08/18 09:24:18;;;;;;;7.15;2.55;;;20.00;99.90;;;;;;5087888;28;20051;-52
2022/08/18 09:27:12;;;;;;;7.50;2.90;;;20.10;99.90;;;;;;5086306;28;20533;-51
2022/08/18 09:29:38;;;;;;;8.75;2.50;;;20.10;99.90;;;;;;5087509;28;20040;-49
2022/08/18 09:32:18;;;;;;;6.82;2.25;;;20.20;99.90;;;;;;5086804;28;20513;-51
2022/08/18 09:35:15;;;;;;;7.30;1.88;;;20.50;99.90;;;;;;5090249;28;20048;-52
2022/08/18 09:44:19;;;;;;;5.80;1.88;;;20.50;99.90;;;;;;5091857;28;20055;-52
2022/08/18 09:46:46;;;;;;;5.38;1.83;;;20.50;99.90;;;;;;5089672;28;20051;-49
2022/08/18 09:49:21;;;;;;;5.85;2.13;;;20.70;99.90;;;;;;5090402;28;20044;-52
2022/08/18 09:51:49;;;;;;;8.43;1.98;;;20.80;99.90;;;;;;5091968;28;20051;-51
2022/08/18 09:54:20;;;;;;;5.28;1.88;;;20.80;99.90;;;;;;5090885;28;20064;-49
2022/08/18 09:56:49;;;;;;;7.10;1.90;;;20.70;99.90;;;;;;5089979;28;20076;-51
2022/08/18 09:59:33;;;;;;;6.05;2.10;;;20.80;99.90;;;;;;5090809;28;20048;-50
2022/08/18 10:02:02;;;;;;;6.10;1.88;;;20.80;99.90;;;;;;5089898;28;20119;-49
2022/08/18 10:04:47;;;;;;;8.85;2.20;;;20.70;99.90;;;;;;5087550;28;20035;-49
2022/08/18 10:07:35;;;;;;;7.18;2.22;;;20.80;99.90;;;;;;5081065;28;20509;-52
2022/08/18 10:10:26;;;;;;;7.10;1.67;;;20.60;99.90;;;;;;5080693;28;20105;-49
2022/08/18 10:13:12;;;;;;;5.40;2.00;;;20.50;99.90;;;;;;5081929;28;20041;-49
2022/08/18 10:16:08;;;;;;;6.43;2.00;;;20.60;99.90;;;;;;5082374;28;20112;-52
2022/08/18 10:18:43;;;;;;;7.40;2.25;;;20.70;99.90;;;;;;5095439;28;20048;-50
2022/08/18 10:21:20;;;;;;;7.25;2.38;;;20.80;99.90;;;;;;5102324;28;20069;-47
2022/08/18 10:23:52;;;;;;;4.47;1.88;;;20.80;99.90;;;;;;5101947;28;20044;-51
2022/08/18 10:26:30;;;;;;;7.35;2.00;;;20.90;99.90;;;;;;5101261;28;20504;-51
2022/08/18 10:29:10;;;;;;;5.45;1.90;;;20.80;99.90;;;;;;5101120;28;20044;-51
2022/08/18 10:31:57;;;;;;;8.05;2.28;;;20.90;99.90;;;;;;5101102;28;20083;-52
2022/08/18 10:34:39;;;;;;;5.57;2.05;;;20.80;99.90;;;;;;5101909;28;20040;-51
2022/08/18 10:37:33;;;;;;;8.73;2.30;;;20.80;99.90;;;;;;5102350;28;20044;-52
2022/08/18 10:40:12;;;;;;;9.07;2.80;;;20.80;99.90;;;;;;5080087;28;20036;-52
2022/08/18 10:42:52;;;;;;;6.53;2.17;;;20.70;99.90;;;;;;5081815;28;20100;-52
2022/08/18 10:45:32;;;;;;;6.65;2.30;;;20.60;99.90;;;;;;5080495;28;20045;-51
2022/08/18 10:47:59;;;;;;;6.45;2.00;;;;;;;;;;5080604;28;20059;-50
2022/08/18 10:50:27;;;;;;;6.90;1.95;;;20.60;99.90;;;;;;5087559;28;20087;-52
2022/08/18 10:53:15;;;;;;;5.28;1.85;;;20.80;99.90;;;;;;5100660;28;20037;-49
2022/08/18 10:55:47;;;;;;;6.68;2.10;;;21.00;99.90;;;;;;5101744;28;20040;-50
2022/08/18 10:58:16;;;;;;;8.75;2.40;;;21.00;99.90;;;;;;5101261;28;20046;-52
2022/08/18 11:01:13;;;;;;;8.20;2.60;;;21.20;99.90;;;;;;5100946;28;20127;-50
2022/08/18 11:03:59;;;;;;;5.35;2.22;;;21.20;99.90;;;;;;5101618;28;20128;-50
2022/08/18 11:06:25;;;;;;;7.65;2.72;;;21.40;99.90;;;;;;5100732;28;20048;-53
2022/08/18 11:08:59;;;;;;;6.57;3.70;;;21.40;99.90;;;;;;5101159;28;20052;-50
2022/08/18 11:11:43;;;;;;;6.13;3.45;;;21.20;99.90;;;;;;5101412;28;20640;-52
2022/08/18 11:14:27;;;;;;;6.72;2.95;;;21.50;99.90;;;;;;5100302;28;20044;-52
2022/08/18 11:17:07;;;;;;;7.75;2.92;;;21.50;99.90;;;;;;5101179;28;20047;-50
2022/08/18 11:19:39;;;;;;;7.90;3.03;;;21.50;99.90;;;;;;5100999;28;20040;-50
2022/08/18 11:22:05;;;;;;;7.38;2.55;;;21.50;99.90;;;;;;5099244;28;20094;-52
2022/08/18 11:24:34;;;;;;;5.65;2.00;;;21.40;99.90;;;;;;5101225;28;20066;-53
2022/08/18 11:27:05;;;;;;;8.40;1.92;;;21.40;99.90;;;;;;5100013;28;20048;-53
2022/08/18 11:29:40;;;;;;;5.57;2.22;;;21.40;99.90;;;;;;5100832;28;20055;-50
2022/08/18 11:32:22;;;;;;;5.97;2.20;;;21.60;99.90;;;;;;5100165;28;20044;-53
2022/08/18 11:34:52;;;;;;;5.60;2.40;;;21.70;99.90;;;;;;5100332;28;20051;-51
2022/08/18 11:37:23;;;;;;;4.93;2.20;;;22.00;99.90;;;;;;5101120;28;20044;-52
2022/08/18 11:39:53;;;;;;;7.40;2.30;;;22.10;99.90;;;;;;5099331;28;20055;-52
2022/08/18 11:42:32;;;;;;;6.28;2.20;;;21.90;99.90;;;;;;5099772;28;20044;-53
2022/08/18 11:45:19;;;;;;;5.45;1.88;;;22.00;99.90;;;;;;5099501;28;20048;-51
2022/08/18 11:48:16;;;;;;;4.93;2.00;;;22.00;99.90;;;;;;5099661;28;20059;-52
2022/08/18 11:50:53;;;;;;;7.03;2.38;;;22.20;99.90;;;;;;5100194;28;20063;-51
2022/08/18 11:53:35;;;;;;;5.05;2.15;;;22.00;99.90;;;;;;5099889;28;20059;-51
2022/08/18 11:56:10;;;;;;;7.15;2.47;;;22.00;99.90;;;;;;5100116;28;20044;-50
2022/08/18 11:58:46;;;;;;;7.32;2.80;;;22.00;99.90;;;;;;5100051;28;20047;-51
2022/08/18 12:02:00;;;;;;;6.82;2.30;;;21.90;99.90;;;;;;5099280;28;20051;-52
2022/08/18 12:04:36;;;;;;;6.07;2.00;;;21.80;99.90;;;;;;5090870;28;20131;-53
2022/08/18 12:07:15;;;;;;;5.55;2.15;;;21.80;99.90;;;;;;5100423;28;20125;-50
2022/08/18 12:10:10;;;;;;;5.30;1.90;;;21.90;99.90;;;;;;5099061;28;20063;-51
2022/08/18 12:12:44;;;;;;;5.68;2.30;;;21.90;99.90;;;;;;5100311;28;20052;-49
2022/08/18 12:15:13;;;;;;;6.38;2.25;;;22.10;99.90;;;;;;5099822;28;20511;-51
2022/08/18 12:17:40;;;;;;;5.55;2.05;;;22.00;99.90;;;;;;5099350;28;20036;-52
2022/08/18 12:20:07;;;;;;;4.80;2.05;;;22.20;99.90;;;;;;5100101;28;20036;-53
2022/08/18 12:22:35;;;;;;;6.53;2.60;;;22.10;99.90;;;;;;5099146;28;20066;-49
2022/08/18 12:25:03;;;;;;;7.68;2.40;;;22.20;99.90;;;;;;5099935;28;20052;-53
2022/08/18 12:27:30;;;;;;;5.72;2.28;;;22.20;99.90;;;;;;5098997;28;20044;-52
2022/08/18 12:29:57;;;;;;;5.13;2.33;;;22.20;99.90;;;;;;5099232;28;20079;-51
2022/08/18 12:32:25;;;;;;;7.10;2.60;;;22.30;99.90;;;;;;5099532;28;20460;-50
2022/08/18 12:34:51;;;;;;;6.65;2.42;;;22.20;99.90;;;;;;5099060;28;20103;-52
2022/08/18 12:37:20;;;;;;;5.30;2.10;;;22.30;99.90;;;;;;5099780;28;20055;-52
2022/08/18 12:39:46;;;;;;;5.38;2.47;;;22.40;99.90;;;;;;5098351;28;20040;-53
2022/08/18 12:42:13;;;;;;;8.63;2.00;;;22.30;99.90;;;;;;5099471;28;20040;-50
2022/08/18 12:44:40;;;;;;;6.03;2.17;;;22.60;99.90;;;;;;5098630;28;20043;-50
2022/08/18 12:47:26;;;;;;;6.18;2.60;;;22.40;99.90;;;;;;5099129;28;20048;-51
2022/08/18 12:49:52;;;;;;;6.03;2.28;;;22.40;99.90;;;;;;5099453;28;20055;-52
2022/08/18 12:52:19;;;;;;;6.53;2.75;;;22.20;99.90;;;;;;5098671;28;20495;-52
2022/08/18 12:54:46;;;;;;;5.05;2.08;;;22.30;99.90;;;;;;5099697;28;20123;-52
2022/08/18 12:57:26;;;;;;;6.78;2.05;;;22.50;99.90;;;;;;5098411;28;20101;-50
2022/08/18 12:59:53;;;;;;;4.55;2.00;;;22.50;99.90;;;;;;5099353;28;20040;-50
2022/08/18 13:02:20;;;;;;;7.43;2.40;;;22.60;99.90;;;;;;5099074;28;20119;-51
2022/08/18 13:04:46;;;;;;;4.93;2.20;;;22.70;99.90;;;;;;5097434;28;20044;-52
2022/08/18 13:07:14;;;;;;;6.22;2.15;;;22.70;99.90;;;;;;5099412;28;20048;-51
2022/08/18 13:09:41;;;;;;;5.50;2.05;;;22.60;99.90;;;;;;5096849;28;20052;-52
2022/08/18 13:12:08;;;;;;;5.82;2.33;;;22.60;99.90;;;;;;5099231;28;20040;-51
2022/08/18 13:14:34;;;;;;;5.43;2.10;;;22.50;99.90;;;;;;5098204;28;20063;-52
2022/08/18 13:17:00;;;;;;;6.20;2.15;;;22.30;99.90;;;;;;5099022;28;20051;-52
2022/08/18 13:19:26;;;;;;;5.18;2.08;;;22.10;99.90;;;;;;5099176;28;20040;-50
2022/08/18 13:21:52;;;;;;;6.05;2.38;;;22.10;99.90;;;;;;5098171;28;20040;-51
2022/08/18 13:24:18;;;;;;;4.75;2.13;;;22.20;99.90;;;;;;5099312;28;20393;-51
2022/08/18 13:26:45;;;;;;;6.00;2.20;;;22.10;99.90;;;;;;5098063;28;20040;-52
2022/08/18 13:29:12;;;;;;;6.50;2.40;;;22.20;99.90;;;;;;5099021;28;20040;-52
2022/08/18 13:31:38;;;;;;;5.97;2.28;;;22.40;99.90;;;;;;5098027;28;20119;-48
2022/08/18 13:34:06;;;;;;;5.75;2.38;;;22.50;99.90;;;;;;5099273;28;20573;-50